createdAt,value
2017-09-24T00:00:32.022Z,9.40
2017-09-24T00:02:59.663Z,10.37
2017-09-24T00:05:27.125Z,11.27
2017-09-24T00:07:55.760Z,11.30
2017-09-24T00:10:23.974Z,10.60
2017-09-24T00:12:52.577Z,9.47
2017-09-24T00:15:22.813Z,9.67
2017-09-24T00:17:50.526Z,7.77
2017-09-24T00:20:18.964Z,7.80
2017-09-24T00:22:46.921Z,7.57
2017-09-24T00:25:15.727Z,7.40
2017-09-24T00:27:43.809Z,7.60
2017-09-24T00:30:11.933Z,7.00
2017-09-24T00:32:40.485Z,8.20
2017-09-24T00:35:09.347Z,7.77
2017-09-24T00:37:37.126Z,8.70
2017-09-24T00:40:05.061Z,8.20
2017-09-24T00:42:33.451Z,8.07
2017-09-24T00:45:01.867Z,8.50
2017-09-24T00:47:29.973Z,8.40
2017-09-24T00:49:58.289Z,8.43
2017-09-24T00:52:25.922Z,8.03
2017-09-24T00:54:53.483Z,9.33
2017-09-24T00:57:21.257Z,8.13
2017-09-24T00:59:49.388Z,8.20
2017-09-24T01:02:18.152Z,8.53
2017-09-24T01:04:46.449Z,8.23
2017-09-24T01:07:13.979Z,7.40
2017-09-24T01:09:41.490Z,7.67
2017-09-24T01:12:08.948Z,7.33
2017-09-24T01:14:36.729Z,8.30
2017-09-24T01:17:05.400Z,8.67
2017-09-24T01:19:32.835Z,9.13
2017-09-24T01:22:00.287Z,8.67
2017-09-24T01:24:27.747Z,9.77
2017-09-24T01:26:55.204Z,8.93
2017-09-24T01:29:23.448Z,10.33
2017-09-24T01:31:50.907Z,9.20
2017-09-24T01:34:18.366Z,9.30
2017-09-24T01:36:45.853Z,9.77
2017-09-24T01:39:13.424Z,10.33
2017-09-24T01:41:40.957Z,10.80
2017-09-24T01:44:08.661Z,10.17
2017-09-24T01:46:36.892Z,10.33
2017-09-24T01:49:04.345Z,10.60
2017-09-24T01:51:31.926Z,11.63
2017-09-24T01:53:59.383Z,9.77
2017-09-24T01:56:26.841Z,11.30
2017-09-24T01:58:55.081Z,10.67
2017-09-24T02:01:22.537Z,10.90
2017-09-24T02:03:50.346Z,10.10
2017-09-24T02:06:17.780Z,9.50
2017-09-24T02:08:45.244Z,10.23
2017-09-24T02:11:14.130Z,9.63
2017-09-24T02:13:42.097Z,10.90
2017-09-24T02:16:09.548Z,9.30
2017-09-24T02:18:37.012Z,10.60
2017-09-24T02:21:05.271Z,9.80
2017-09-24T02:23:32.728Z,10.10
2017-09-24T02:26:00.183Z,8.50
2017-09-24T02:28:27.639Z,10.53
2017-09-24T02:30:55.108Z,9.17
2017-09-24T02:33:22.575Z,10.03
2017-09-24T02:35:50.039Z,9.17
2017-09-24T02:38:18.280Z,9.50
2017-09-24T02:40:45.748Z,9.87
2017-09-24T02:43:13.225Z,9.83
2017-09-24T02:45:40.695Z,9.47
2017-09-24T02:48:08.929Z,10.27
2017-09-24T02:50:36.377Z,10.17
2017-09-24T02:53:03.831Z,10.60
2017-09-24T02:55:31.282Z,10.43
2017-09-24T02:57:58.763Z,10.33
2017-09-24T03:00:27.328Z,11.70
2017-09-24T03:02:54.782Z,10.70
2017-09-24T03:05:22.259Z,10.17
2017-09-24T03:07:49.718Z,10.47
2017-09-24T03:10:17.374Z,9.47
2017-09-24T03:12:44.831Z,10.37
2017-09-24T03:15:12.292Z,9.70
2017-09-24T03:17:39.751Z,10.50
2017-09-24T03:20:07.284Z,10.43
2017-09-24T03:22:34.741Z,11.63
2017-09-24T03:25:02.205Z,10.83
2017-09-24T03:27:30.300Z,11.20
2017-09-24T03:29:57.757Z,10.27
2017-09-24T03:32:25.201Z,10.43
2017-09-24T03:34:53.437Z,10.30
2017-09-24T03:37:20.907Z,10.20
2017-09-24T03:39:48.365Z,10.20
2017-09-24T03:42:15.846Z,10.70
2017-09-24T03:44:43.311Z,10.33
2017-09-24T03:47:11.540Z,10.87
2017-09-24T03:49:39.002Z,10.87
2017-09-24T03:52:06.459Z,11.20
2017-09-24T03:54:33.960Z,10.87
2017-09-24T03:57:01.455Z,11.40
2017-09-24T03:59:29.809Z,13.10
2017-09-24T04:01:57.316Z,11.67
2017-09-24T04:04:24.773Z,11.73
2017-09-24T04:06:52.309Z,11.90
2017-09-24T04:09:19.779Z,11.83
2017-09-24T04:11:47.244Z,11.80
2017-09-24T04:14:14.690Z,12.40
2017-09-24T04:16:42.139Z,12.53
2017-09-24T04:19:09.615Z,12.13
2017-09-24T04:21:37.092Z,11.80
2017-09-24T04:24:04.550Z,11.30
2017-09-24T04:26:32.108Z,11.90
2017-09-24T04:28:59.551Z,10.90
2017-09-24T04:31:27.329Z,11.90
2017-09-24T04:33:54.814Z,11.70
2017-09-24T04:36:23.030Z,12.37
2017-09-24T04:38:50.498Z,12.03
2017-09-24T04:41:17.962Z,12.40
2017-09-24T04:43:45.430Z,12.00
2017-09-24T04:46:12.891Z,12.03
2017-09-24T04:48:40.348Z,14.30
2017-09-24T04:51:08.599Z,15.60
2017-09-24T04:53:36.069Z,13.00
2017-09-24T04:56:03.897Z,12.67
2017-09-24T04:58:32.183Z,12.93
2017-09-24T05:00:59.646Z,14.17
2017-09-24T05:03:27.111Z,14.53
2017-09-24T05:05:54.776Z,14.93
2017-09-24T05:08:22.225Z,15.40
2017-09-24T05:10:49.682Z,14.33
2017-09-24T05:13:17.131Z,14.30
2017-09-24T05:15:44.589Z,14.77
2017-09-24T05:18:12.043Z,15.10
2017-09-24T05:20:40.095Z,14.20
2017-09-24T05:23:07.566Z,14.37
2017-09-24T05:25:35.027Z,14.00
2017-09-24T05:28:02.489Z,13.90
2017-09-24T05:30:29.943Z,14.00
2017-09-24T05:32:57.423Z,14.13
2017-09-24T05:35:27.064Z,14.10
2017-09-24T05:37:55.359Z,14.00
2017-09-24T05:40:22.864Z,14.23
2017-09-24T05:42:50.321Z,14.77
2017-09-24T05:45:17.774Z,14.10
2017-09-24T05:47:45.235Z,15.37
2017-09-24T05:50:13.482Z,13.93
2017-09-24T05:52:41.775Z,14.30
2017-09-24T05:55:09.246Z,14.63
2017-09-24T05:57:37.467Z,14.30
2017-09-24T06:00:04.924Z,14.57
2017-09-24T06:02:32.384Z,13.13
2017-09-24T06:04:59.837Z,13.73
2017-09-24T06:07:27.292Z,15.57
2017-09-24T06:09:55.552Z,13.57
2017-09-24T06:12:23.009Z,14.83
2017-09-24T06:14:50.464Z,15.10
2017-09-24T06:17:17.919Z,14.37
2017-09-24T06:19:45.375Z,14.03
2017-09-24T06:22:12.832Z,15.23
2017-09-24T06:24:40.279Z,15.67
2017-09-24T06:27:07.742Z,14.63
2017-09-24T06:29:35.212Z,15.13
2017-09-24T06:32:02.655Z,14.87
2017-09-24T06:34:30.156Z,15.10
2017-09-24T06:36:57.634Z,16.00
2017-09-24T06:39:25.095Z,15.03
2017-09-24T06:41:52.564Z,15.90
2017-09-24T06:44:20.784Z,15.67
2017-09-24T06:46:48.258Z,15.40
2017-09-24T06:49:16.510Z,16.07
2017-09-24T06:51:43.970Z,16.33
2017-09-24T06:54:11.434Z,17.27
2017-09-24T06:56:39.728Z,15.57
2017-09-24T06:59:07.247Z,15.30
2017-09-24T07:01:34.721Z,16.33
2017-09-24T07:04:02.179Z,18.07
2017-09-24T07:06:29.651Z,18.00
2017-09-24T07:08:57.217Z,17.93
2017-09-24T07:11:25.480Z,17.13
2017-09-24T07:13:52.955Z,18.17
2017-09-24T07:16:21.218Z,16.40
2017-09-24T07:18:48.682Z,16.60
2017-09-24T07:21:16.119Z,16.80
2017-09-24T07:23:43.588Z,17.47
2017-09-24T07:26:11.059Z,16.70
2017-09-24T07:28:38.527Z,15.93
2017-09-24T07:31:06.760Z,15.90
2017-09-24T07:33:34.227Z,17.23
2017-09-24T07:36:01.675Z,16.17
2017-09-24T07:38:29.140Z,16.20
2017-09-24T07:40:56.598Z,16.20
2017-09-24T07:43:24.121Z,17.63
2017-09-24T07:45:51.635Z,17.77
2017-09-24T07:48:19.082Z,17.67
2017-09-24T07:50:46.527Z,15.73
2017-09-24T07:53:13.982Z,18.00
2017-09-24T07:55:41.444Z,15.67
2017-09-24T07:58:08.894Z,16.40
2017-09-24T08:00:36.387Z,16.43
2017-09-24T08:03:03.849Z,16.90
2017-09-24T08:05:32.060Z,16.90
2017-09-24T08:07:59.520Z,17.97
2017-09-24T08:10:26.967Z,17.80
2017-09-24T08:12:54.425Z,17.10
2017-09-24T08:15:21.878Z,18.63
2017-09-24T08:17:49.339Z,18.17
2017-09-24T08:20:16.796Z,17.00
2017-09-24T08:22:44.239Z,17.60
2017-09-24T08:25:11.699Z,19.07
2017-09-24T08:27:39.165Z,18.97
2017-09-24T08:30:06.616Z,18.00
2017-09-24T08:32:34.074Z,17.87
2017-09-24T08:35:01.610Z,16.80
2017-09-24T08:37:29.066Z,18.03
2017-09-24T08:39:56.515Z,16.37
2017-09-24T08:42:23.980Z,17.23
2017-09-24T08:44:55.977Z,16.70
2017-09-24T08:47:23.544Z,18.00
2017-09-24T08:49:51.008Z,17.97
2017-09-24T08:52:18.459Z,17.47
2017-09-24T08:54:45.917Z,17.93
2017-09-24T08:57:13.376Z,17.43
2017-09-24T08:59:41.461Z,19.10
2017-09-24T09:02:09.684Z,19.57
2017-09-24T09:04:37.926Z,19.30
2017-09-24T09:07:06.135Z,18.40
2017-09-24T09:09:33.590Z,18.27
2017-09-24T09:12:01.047Z,19.87
2017-09-24T09:14:28.501Z,22.30
2017-09-24T09:16:55.959Z,20.60
2017-09-24T09:19:23.410Z,19.30
2017-09-24T09:21:50.866Z,21.13
2017-09-24T09:24:18.328Z,19.60
2017-09-24T09:26:45.782Z,20.60
2017-09-24T09:29:13.240Z,20.80
2017-09-24T09:31:40.694Z,21.20
2017-09-24T09:34:19.799Z,23.00
2017-09-24T09:36:47.250Z,25.03
2017-09-24T09:39:15.469Z,22.80
2017-09-24T09:41:42.923Z,22.00
2017-09-24T09:44:22.064Z,20.67
2017-09-24T09:47:01.189Z,21.07
2017-09-24T09:49:28.631Z,22.27
2017-09-24T09:51:56.095Z,21.67
2017-09-24T09:54:23.551Z,22.10
2017-09-24T09:56:51.011Z,21.13
2017-09-24T09:59:18.462Z,20.77
2017-09-24T10:01:45.931Z,19.43
2017-09-24T10:04:13.384Z,19.20
2017-09-24T10:06:52.447Z,18.33
2017-09-24T10:09:32.455Z,19.70
2017-09-24T10:11:59.923Z,17.90
2017-09-24T10:14:27.368Z,19.70
2017-09-24T10:16:54.828Z,19.20
2017-09-24T10:19:22.299Z,18.47
2017-09-24T10:21:49.753Z,16.27
2017-09-24T10:24:17.294Z,17.77
2017-09-24T10:26:44.751Z,17.37
2017-09-24T10:29:23.767Z,17.30
2017-09-24T10:32:02.034Z,15.10
2017-09-24T10:34:29.487Z,16.40
2017-09-24T10:36:56.950Z,16.70
2017-09-24T10:39:25.165Z,14.47
2017-09-24T10:41:52.621Z,14.00
2017-09-24T10:44:20.076Z,14.43
2017-09-24T10:46:47.562Z,13.93
2017-09-24T10:49:15.026Z,13.60
2017-09-24T10:51:42.478Z,14.70
2017-09-24T10:54:09.934Z,13.90
2017-09-24T10:56:37.383Z,13.93
2017-09-24T10:59:04.852Z,13.00
2017-09-24T11:01:32.304Z,9.73
2017-09-24T11:03:59.764Z,12.33
2017-09-24T11:06:27.216Z,14.33
2017-09-24T11:08:54.670Z,14.67
2017-09-24T11:11:22.132Z,15.00
2017-09-24T11:13:49.608Z,13.77
2017-09-24T11:16:17.826Z,14.20
2017-09-24T11:18:45.279Z,12.33
2017-09-24T11:21:12.735Z,15.47
2017-09-24T11:23:40.191Z,17.33
2017-09-24T11:26:07.667Z,15.90
2017-09-24T11:28:35.151Z,15.80
2017-09-24T11:31:02.596Z,14.10
2017-09-24T11:33:30.044Z,12.50
2017-09-24T11:35:57.513Z,12.03
2017-09-24T11:38:24.964Z,13.90
2017-09-24T11:40:52.420Z,14.00
2017-09-24T11:43:19.863Z,11.93
2017-09-24T11:45:47.319Z,11.30
2017-09-24T11:48:14.767Z,11.63
2017-09-24T11:50:42.224Z,10.40
2017-09-24T11:53:09.672Z,12.50
2017-09-24T11:55:37.134Z,11.40
2017-09-24T11:58:04.581Z,11.03
2017-09-24T12:00:32.034Z,14.33
2017-09-24T12:02:59.492Z,12.43
2017-09-24T12:05:26.947Z,13.00
2017-09-24T12:07:54.847Z,12.80
2017-09-24T12:10:22.302Z,13.30
2017-09-24T12:12:49.760Z,14.20
2017-09-24T12:15:17.218Z,14.17
2017-09-24T12:17:44.674Z,14.43
2017-09-24T12:20:12.131Z,12.07
2017-09-24T12:22:39.587Z,12.73
2017-09-24T12:25:07.056Z,11.20
2017-09-24T12:27:34.504Z,11.33
2017-09-24T12:30:01.947Z,9.90
2017-09-24T12:32:29.407Z,10.77
2017-09-24T12:34:56.862Z,10.73
2017-09-24T12:37:24.328Z,11.83
2017-09-24T12:39:51.778Z,11.97
2017-09-24T12:42:19.235Z,12.60
2017-09-24T12:44:46.687Z,14.47
2017-09-24T12:47:14.149Z,13.93
2017-09-24T12:49:41.594Z,12.40
2017-09-24T12:52:09.052Z,12.70
2017-09-24T12:54:36.503Z,13.57
2017-09-24T12:57:03.976Z,15.00
2017-09-24T12:59:31.426Z,14.60
2017-09-24T13:01:58.882Z,14.30
2017-09-24T13:04:26.343Z,13.70
2017-09-24T13:06:53.819Z,15.00
2017-09-24T13:09:21.266Z,14.10
2017-09-24T13:11:48.779Z,13.00
2017-09-24T13:14:16.230Z,12.57
2017-09-24T13:16:43.691Z,12.83
2017-09-24T13:19:11.153Z,13.57
2017-09-24T13:21:38.631Z,12.20
2017-09-24T13:24:06.088Z,14.97
2017-09-24T13:26:33.536Z,12.83
2017-09-24T13:29:00.991Z,11.50
2017-09-24T13:31:28.439Z,11.83
2017-09-24T13:33:55.895Z,11.23
2017-09-24T13:36:23.375Z,11.50
2017-09-24T13:38:50.827Z,10.10
2017-09-24T13:41:18.282Z,9.77
2017-09-24T13:43:45.745Z,11.27
2017-09-24T13:46:13.199Z,11.17
2017-09-24T13:48:40.662Z,10.57
2017-09-24T13:51:08.132Z,10.40
2017-09-24T13:53:36.515Z,10.13
2017-09-24T13:56:04.012Z,10.33
2017-09-24T13:58:31.467Z,10.00
2017-09-24T14:00:58.922Z,9.90
2017-09-24T14:03:26.546Z,11.43
2017-09-24T14:05:54.760Z,10.20
2017-09-24T14:08:22.215Z,10.30
2017-09-24T14:10:49.670Z,11.27
2017-09-24T14:13:17.299Z,11.63
2017-09-24T14:15:44.898Z,11.43
2017-09-24T14:18:12.359Z,11.27
2017-09-24T14:20:39.802Z,12.47
2017-09-24T14:23:07.259Z,11.50
2017-09-24T14:25:34.714Z,10.60
2017-09-24T14:28:02.176Z,10.77
2017-09-24T14:30:29.642Z,11.60
2017-09-24T14:32:57.879Z,10.30
2017-09-24T14:35:25.442Z,11.00
2017-09-24T14:37:52.891Z,11.30
2017-09-24T14:40:20.345Z,12.70
2017-09-24T14:42:48.727Z,12.00
2017-09-24T14:45:16.618Z,13.17
2017-09-24T14:47:44.718Z,11.90
2017-09-24T14:50:12.899Z,12.07
2017-09-24T14:52:41.309Z,12.20
2017-09-24T14:55:08.911Z,13.00
2017-09-24T14:57:36.365Z,11.20
2017-09-24T15:00:03.822Z,10.70
2017-09-24T15:02:31.274Z,9.70
2017-09-24T15:04:58.747Z,9.17
2017-09-24T15:07:26.212Z,11.13
2017-09-24T15:09:53.774Z,11.57
2017-09-24T15:12:21.211Z,9.63
2017-09-24T15:14:48.662Z,12.00
2017-09-24T15:17:16.106Z,9.70
2017-09-24T15:19:43.562Z,10.10
2017-09-24T15:22:11.020Z,9.90
2017-09-24T15:24:38.462Z,10.07
2017-09-24T15:27:05.915Z,10.90
2017-09-24T15:29:33.374Z,10.90
2017-09-24T15:32:00.829Z,10.40
2017-09-24T15:34:28.261Z,12.00
2017-09-24T15:36:56.487Z,11.80
2017-09-24T15:39:23.939Z,11.50
2017-09-24T15:41:51.407Z,12.37
2017-09-24T15:44:18.855Z,13.70
2017-09-24T15:46:46.311Z,11.90
2017-09-24T15:49:13.756Z,12.63
2017-09-24T15:51:41.223Z,12.17
2017-09-24T15:54:08.679Z,11.63
2017-09-24T15:56:36.139Z,13.37
2017-09-24T15:59:03.600Z,13.33
2017-09-24T16:01:31.046Z,12.00
2017-09-24T16:03:58.502Z,12.50
2017-09-24T16:06:25.950Z,12.20
2017-09-24T16:08:53.410Z,12.37
2017-09-24T16:11:20.858Z,12.37
2017-09-24T16:13:48.315Z,12.00
2017-09-24T16:16:15.771Z,13.30
2017-09-24T16:18:43.226Z,11.60
2017-09-24T16:21:10.689Z,12.67
2017-09-24T16:23:38.139Z,12.20
2017-09-24T16:26:05.600Z,10.93
2017-09-24T16:28:33.055Z,11.90
2017-09-24T16:31:00.500Z,12.20
2017-09-24T16:33:27.966Z,12.63
2017-09-24T16:35:55.900Z,12.23
2017-09-24T16:38:23.353Z,12.40
2017-09-24T16:40:51.604Z,12.70
2017-09-24T16:43:19.057Z,12.20
2017-09-24T16:45:46.503Z,13.30
2017-09-24T16:48:15.915Z,10.90
2017-09-24T16:50:43.766Z,11.53
2017-09-24T16:53:11.207Z,11.53
2017-09-24T16:55:38.664Z,12.20
2017-09-24T16:58:06.113Z,11.10
2017-09-24T17:00:33.565Z,11.30
2017-09-24T17:03:01.022Z,11.57
2017-09-24T17:05:28.484Z,13.00
2017-09-24T17:07:55.964Z,12.53
2017-09-24T17:10:23.428Z,13.03
2017-09-24T17:12:50.872Z,13.00
2017-09-24T17:15:18.334Z,12.60
2017-09-24T17:17:45.775Z,12.10
2017-09-24T17:20:13.230Z,12.73
2017-09-24T17:22:40.675Z,11.60
2017-09-24T17:25:08.130Z,14.03
2017-09-24T17:27:35.587Z,15.30
2017-09-24T17:30:03.068Z,16.73
2017-09-24T17:32:30.520Z,14.17
2017-09-24T17:34:57.971Z,13.50
2017-09-24T17:37:25.410Z,13.60
2017-09-24T17:39:52.880Z,12.27
2017-09-24T17:42:20.346Z,14.83
2017-09-24T17:44:47.994Z,15.03
2017-09-24T17:47:15.443Z,14.27
2017-09-24T17:49:42.893Z,15.60
2017-09-24T17:52:10.351Z,15.77
2017-09-24T17:54:38.035Z,14.60
2017-09-24T17:57:05.495Z,13.87
2017-09-24T17:59:32.943Z,14.40
2017-09-24T18:02:00.390Z,14.50
2017-09-24T18:04:27.838Z,13.53
2017-09-24T18:06:55.296Z,14.37
2017-09-24T18:09:23.547Z,14.57
2017-09-24T18:11:51.042Z,15.30
2017-09-24T18:14:18.512Z,15.37
2017-09-24T18:16:45.990Z,16.13
2017-09-24T18:19:13.445Z,14.57
2017-09-24T18:21:40.899Z,15.20
2017-09-24T18:24:09.186Z,13.87
2017-09-24T18:26:36.707Z,14.50
2017-09-24T18:29:04.155Z,14.40
2017-09-24T18:31:31.607Z,13.90
2017-09-24T18:33:59.051Z,14.67
2017-09-24T18:36:26.521Z,14.47
2017-09-24T18:38:53.971Z,13.33
2017-09-24T18:41:21.423Z,13.47
2017-09-24T18:43:48.861Z,13.67
2017-09-24T18:46:16.315Z,14.50
2017-09-24T18:48:43.767Z,14.90
2017-09-24T18:51:11.215Z,14.30
2017-09-24T18:53:39.433Z,15.90
2017-09-24T18:56:07.670Z,14.13
2017-09-24T18:58:35.114Z,14.10
2017-09-24T19:01:03.354Z,13.70
2017-09-24T19:03:30.802Z,15.20
2017-09-24T19:05:58.247Z,13.60
2017-09-24T19:08:25.723Z,14.70
2017-09-24T19:10:53.170Z,13.63
2017-09-24T19:13:20.730Z,13.20
2017-09-24T19:15:48.215Z,14.00
2017-09-24T19:18:15.691Z,16.30
2017-09-24T19:20:44.036Z,14.70
2017-09-24T19:23:11.562Z,14.27
2017-09-24T19:25:39.011Z,14.13
2017-09-24T19:28:08.201Z,13.43
2017-09-24T19:30:35.783Z,13.40
2017-09-24T19:33:03.226Z,14.63
2017-09-24T19:35:30.679Z,15.23
2017-09-24T19:37:58.141Z,14.13
2017-09-24T19:40:25.578Z,14.00
2017-09-24T19:42:53.027Z,14.30
2017-09-24T19:45:20.474Z,13.57
2017-09-24T19:47:48.690Z,13.13
2017-09-24T19:50:16.135Z,13.40
2017-09-24T19:52:43.594Z,12.80
2017-09-24T19:55:11.046Z,12.73
2017-09-24T19:57:38.492Z,13.00
2017-09-24T20:00:07.391Z,12.77
2017-09-24T20:02:34.847Z,13.30
2017-09-24T20:05:02.302Z,13.73
2017-09-24T20:07:29.762Z,13.03
2017-09-24T20:09:57.214Z,12.57
2017-09-24T20:12:24.674Z,13.30
2017-09-24T20:14:52.136Z,13.40
2017-09-24T20:17:20.274Z,13.67
2017-09-24T20:19:48.490Z,12.77
2017-09-24T20:22:16.494Z,12.13
2017-09-24T20:24:43.947Z,12.40
2017-09-24T20:27:11.379Z,13.50
2017-09-24T20:29:38.826Z,13.93
2017-09-24T20:32:06.271Z,16.43
2017-09-24T20:34:33.746Z,15.47
2017-09-24T20:37:01.204Z,14.43
2017-09-24T20:39:28.722Z,14.17
2017-09-24T20:41:56.202Z,13.73
2017-09-24T20:44:23.665Z,12.00
2017-09-24T20:46:52.467Z,11.80
2017-09-24T20:49:20.753Z,11.60
2017-09-24T20:51:48.210Z,13.17
2017-09-24T20:54:15.664Z,11.80
2017-09-24T20:56:43.131Z,12.70
2017-09-24T20:59:10.574Z,12.70
2017-09-24T21:01:38.027Z,12.70
2017-09-24T21:04:05.491Z,12.07
2017-09-24T21:06:32.943Z,11.30
2017-09-24T21:09:00.400Z,13.00
2017-09-24T21:11:27.846Z,12.40
2017-09-24T21:13:55.311Z,11.10
2017-09-24T21:16:22.767Z,11.50
2017-09-24T21:18:50.215Z,12.30
2017-09-24T21:21:17.680Z,11.30
2017-09-24T21:23:45.128Z,11.70
2017-09-24T21:26:12.578Z,11.60
2017-09-24T21:28:40.023Z,12.90
2017-09-24T21:31:07.483Z,11.30
2017-09-24T21:33:34.927Z,11.43
2017-09-24T21:36:02.379Z,10.10
2017-09-24T21:38:29.830Z,10.53
2017-09-24T21:40:57.272Z,9.73
2017-09-24T21:43:24.710Z,9.50
2017-09-24T21:45:53.035Z,9.80
2017-09-24T21:48:20.490Z,9.77
2017-09-24T21:50:47.937Z,9.40
2017-09-24T21:53:15.375Z,8.37
2017-09-24T21:55:42.814Z,8.97
2017-09-24T21:58:11.026Z,8.67
2017-09-24T22:00:38.471Z,8.97
2017-09-24T22:03:05.914Z,9.00
2017-09-24T22:05:33.359Z,9.63
2017-09-24T22:08:01.568Z,8.50
2017-09-24T22:10:29.022Z,7.43
2017-09-24T22:12:56.474Z,8.90
2017-09-24T22:15:23.932Z,7.90
2017-09-24T22:17:51.387Z,8.57
2017-09-24T22:20:18.838Z,8.30
2017-09-24T22:22:46.270Z,8.73
2017-09-24T22:25:14.488Z,9.10
2017-09-24T22:27:41.928Z,8.93
2017-09-24T22:30:09.362Z,9.10
2017-09-24T22:32:36.802Z,8.30
2017-09-24T22:35:04.239Z,9.70
2017-09-24T22:37:31.674Z,8.67
2017-09-24T22:39:59.122Z,8.70
2017-09-24T22:42:26.570Z,8.40
2017-09-24T22:44:54.007Z,8.87
2017-09-24T22:47:21.450Z,8.63
2017-09-24T22:49:49.686Z,7.07
2017-09-24T22:52:17.163Z,7.60
2017-09-24T22:54:44.598Z,7.43
2017-09-24T22:57:12.038Z,7.47
2017-09-24T22:59:39.487Z,8.03
2017-09-24T23:02:06.933Z,7.27
2017-09-24T23:04:34.391Z,8.20
2017-09-24T23:07:01.831Z,7.90
2017-09-24T23:09:29.275Z,8.80
2017-09-24T23:11:57.483Z,7.80
2017-09-24T23:14:24.927Z,8.60
2017-09-24T23:16:52.378Z,7.33
2017-09-24T23:19:19.818Z,8.20
2017-09-24T23:21:47.254Z,7.20
2017-09-24T23:24:15.470Z,7.60
2017-09-24T23:26:42.911Z,8.10
2017-09-24T23:29:10.360Z,8.10
2017-09-24T23:31:38.566Z,8.20
2017-09-24T23:34:06.027Z,7.60
2017-09-24T23:36:33.467Z,7.40
2017-09-24T23:39:00.923Z,7.40
2017-09-24T23:41:28.374Z,8.47
2017-09-24T23:43:55.803Z,7.90
2017-09-24T23:46:24.011Z,8.07
2017-09-24T23:48:51.451Z,7.73
2017-09-24T23:51:18.891Z,7.30
2017-09-24T23:53:46.319Z,7.60
2017-09-24T23:56:13.767Z,8.20
2017-09-24T23:58:41.215Z,7.10
